Time;durP1;ratioP1;P1;durP2;ratioP2;P2;SDS_P1;SDS_P2;PMS_P1;PMS_P2;Temp;Humidity;BMP_temperature;BMP_pressure;BME280_temperature;BME280_humidity;BME280_pressure;Samples;Min_cycle;Max_cycle;Signal;HPM_P1;HPM_P2
2021/05/04 00:02:54;;;;;;;2.25;0.70;;;;;;;8.68;52.97;98301.59;4994567;28;20050;-72
2021/05/04 00:05:24;;;;;;;1.80;0.60;;;;;;;9.47;52.62;98415.88;4966932;28;20049;-70
2021/05/04 00:08:15;;;;;;;0.68;0.40;;;;;;;9.40;51.92;98414.34;4984981;28;20046;-70
2021/05/04 00:14:30;;;;;;;0.52;0.40;;;;;;;8.93;52.98;98325.31;4984887;28;20046;-73
2021/05/04 00:17:29;;;;;;;5.20;2.17;;;;;;;9.11;52.13;98346.66;4973097;28;20088;-73
2021/05/04 00:20:07;;;;;;;2.15;0.40;;;;;;;8.77;52.97;98350.59;4967995;28;20100;-75
2021/05/04 00:22:33;;;;;;;0.68;0.40;;;;;;;8.89;52.38;98340.44;4968558;28;20049;-75
2021/05/04 00:25:02;;;;;;;0.40;0.40;;;;;;;8.66;53.88;98363.31;4968557;28;20042;-75
2021/05/04 00:27:30;;;;;;;0.85;0.30;;;;;;;8.74;53.43;98335.69;4967638;28;20577;-72
2021/05/04 00:30:05;;;;;;;1.23;0.60;;;;;;;8.74;53.12;98355.97;4984297;28;20046;-76
2021/05/04 00:32:34;;;;;;;0.47;0.47;;;;;;;8.68;53.84;98370.28;4995284;28;20108;-77
2021/05/04 00:35:01;;;;;;;5.97;0.68;;;;;;;8.74;53.87;98346.28;4967556;28;20141;-74
2021/05/04 00:37:30;;;;;;;0.70;0.60;;;;;;;8.69;53.45;98363.19;4983275;28;20834;-76
2021/05/04 00:40:25;;;;;;;0.95;0.50;;;;;;;8.73;53.75;98362.19;5046013;28;20052;-76
2021/05/04 00:43:12;;;;;;;3.08;0.50;;;;;;;8.86;53.37;98345.84;5044596;28;20048;-75
2021/05/04 00:45:43;;;;;;;2.55;0.50;;;;;;;8.88;53.08;98359.88;5026323;28;20140;-76
2021/05/04 00:48:13;;;;;;;1.60;0.60;;;;;;;8.80;52.82;98384.84;5026751;28;20036;-75
2021/05/04 00:50:40;;;;;;;0.80;0.52;;;;;;;8.53;53.36;98303.91;5026075;28;20053;-75
2021/05/04 00:53:07;;;;;;;0.93;0.50;;;;;;;8.69;53.77;98319.16;5043820;28;20051;-76
2021/05/04 00:55:33;;;;;;;1.83;0.57;;;;;;;8.42;53.36;98303.41;5025544;28;20036;-76
2021/05/04 00:58:09;;;;;;;1.08;0.60;;;;;;;8.44;54.26;98326.22;4996369;28;20080;-76
2021/05/04 01:00:46;;;;;;;3.10;0.40;;;;;;;8.58;54.44;98354.78;5021053;28;20045;-73
2021/05/04 01:16:43;;;;;;;0.70;0.50;;;;;;;8.67;53.88;98320.13;4876680;29;20524;-75
2021/05/04 01:20:09;;;;;;;0.98;0.80;;;;;;;8.19;54.58;98284.84;4890824;29;20115;-69
2021/05/04 01:30:50;;;;;;;0.70;0.50;;;;;;;8.01;55.89;98340.88;4852268;29;20592;-74
2021/05/04 01:37:26;;;;;;;0.55;0.40;;;;;;;7.76;55.54;98329.38;4836350;29;20057;-73
2021/05/04 01:41:08;;;;;;;0.55;0.50;;;;;;;7.68;55.64;98326.97;4805368;29;20110;-73
2021/05/04 01:48:46;;;;;;;1.08;0.50;;;;;;;7.80;55.22;98316.03;4773615;29;20055;-72
2021/05/04 01:56:13;;;;;;;1.27;0.68;;;;;;;8.07;55.34;98322.22;4799969;29;20531;-74
2021/05/04 01:58:59;;;;;;;1.73;0.50;;;;;;;7.76;55.17;98276.63;4853176;29;20045;-74
2021/05/04 02:01:50;;;;;;;0.50;0.50;;;;;;;7.50;55.60;98234.38;4823538;29;20061;-74
2021/05/04 02:04:32;;;;;;;3.38;0.93;;;;;;;7.98;55.02;98309.28;4852207;29;20180;-74
2021/05/04 02:07:03;;;;;;;0.60;0.50;;;;;;;8.04;55.27;98278.28;4887306;29;20060;-75
2021/05/04 02:10:19;;;;;;;1.05;0.40;;;;;;;8.12;55.01;98313.19;4856220;29;20080;-74
2021/05/04 02:13:05;;;;;;;0.95;0.40;;;;;;;7.81;55.00;98272.94;4871465;29;20148;-74
2021/05/04 02:15:54;;;;;;;0.30;0.30;;;;;;;7.69;55.90;98277.72;4901156;29;20146;-68
2021/05/04 02:18:39;;;;;;;1.38;0.60;;;;;;;8.07;55.57;98315.13;4912025;29;20115;-66
2021/05/04 02:21:52;;;;;;;1.20;0.50;;;;;;;7.73;55.93;98287.25;4927331;29;20051;-66
2021/05/04 02:25:19;;;;;;;0.98;0.70;;;;;;;7.92;56.12;98315.63;4911304;29;20146;-68
2021/05/04 02:29:08;;;;;;;0.68;0.57;;;;;;;7.58;56.38;98235.88;4919760;29;20043;-67
2021/05/04 02:33:29;;;;;;;0.52;0.30;;;;;;;7.86;56.57;98301.78;4961755;28;20532;-67
2021/05/04 02:37:06;;;;;;;0.73;0.32;;;;;;;7.37;57.42;98230.44;4960557;28;20612;-68
2021/05/04 02:44:48;;;;;;;1.00;0.50;;;;;;;7.57;56.62;98305.38;4909884;29;20496;-68
2021/05/04 02:52:58;;;;;;;1.20;0.60;;;;;;;7.21;57.19;98266.97;4819546;29;20105;-67
2021/05/04 02:56:26;;;;;;;2.15;0.60;;;;;;;7.62;57.20;98290.25;4836840;29;20053;-67
2021/05/04 03:03:12;;;;;;;6.80;0.45;;;;;;;7.61;56.15;98256.00;4797500;29;20058;-67
2021/05/04 03:05:38;;;;;;;1.05;0.40;;;;;;;7.72;56.52;98298.75;4752102;29;20055;-66
2021/05/04 03:08:05;;;;;;;0.45;0.32;;;;;;;7.72;56.10;98299.59;4780104;29;20054;-66
2021/05/04 03:10:32;;;;;;;1.40;0.57;;;;;;;7.56;55.58;98263.22;4757829;29;20062;-66
2021/05/04 03:12:58;;;;;;;1.90;0.88;;;;;;;7.51;56.00;98270.38;4812697;29;20109;-66
2021/05/04 03:15:25;;;;;;;1.40;0.60;;;;;;;7.63;56.16;98260.31;4834597;29;20049;-67
2021/05/04 03:17:52;;;;;;;0.47;0.35;;;;;;;7.62;55.29;98265.63;4834977;29;20056;-66
2021/05/04 03:20:18;;;;;;;0.52;0.38;;;;;;;7.69;55.16;98275.97;4851413;29;20069;-68
2021/05/04 03:22:45;;;;;;;0.90;0.40;;;;;;;7.97;55.80;98311.09;4820331;29;20195;-68
2021/05/04 03:25:11;;;;;;;0.47;0.40;;;;;;;7.69;56.23;98275.09;4833669;29;20089;-66
2021/05/04 03:27:38;;;;;;;0.45;0.30;;;;;;;7.89;55.12;98312.25;4878047;29;20066;-67
2021/05/04 03:30:07;;;;;;;0.40;0.30;;;;;;;7.73;55.51;98298.69;4941850;28;20245;-66
2021/05/04 03:32:34;;;;;;;0.77;0.40;;;;;;;7.48;55.62;98263.44;4945085;28;20141;-68
2021/05/04 03:35:00;;;;;;;2.53;0.40;;;;;;;7.48;55.56;98252.91;4980642;28;20143;-67
2021/05/04 03:37:27;;;;;;;0.60;0.40;;;;;;;7.70;55.06;98267.13;5034541;28;20067;-68
2021/05/04 03:39:53;;;;;;;3.67;0.50;;;;;;;7.69;55.76;98304.09;5034068;28;20043;-66
2021/05/04 03:42:28;;;;;;;1.10;0.30;;;;;;;7.47;55.82;98276.66;5049263;28;20048;-67
2021/05/04 03:45:27;;;;;;;0.38;0.28;;;;;;;7.48;56.06;98323.25;5067228;28;20113;-68
2021/05/04 03:48:06;;;;;;;0.38;0.38;;;;;;;7.24;56.11;98266.00;5022401;28;20070;-67
2021/05/04 03:50:53;;;;;;;;;;;;;;;7.53;56.43;98290.56;5052409;28;20150;-66
2021/05/04 03:53:31;;;;;;;1.67;0.50;;;;;;;7.84;56.12;98280.72;5026378;28;19947;-68
2021/05/04 03:56:08;;;;;;;0.30;0.30;;;;;;;7.71;55.95;98225.78;5008863;28;20044;-69
2021/05/04 03:58:47;;;;;;;0.55;0.40;;;;;;;8.09;54.31;98260.53;5010234;28;20055;-67
2021/05/04 04:01:20;;;;;;;1.42;0.43;;;;;;;8.25;55.09;98268.81;5008330;28;20060;-69
2021/05/04 04:04:37;;;;;;;0.80;0.40;;;;;;;8.15;55.37;98265.59;4996934;28;20110;-68
2021/05/04 04:07:30;;;;;;;;;;;;;;;8.06;54.53;98263.25;4995107;28;20045;-67
2021/05/04 04:10:39;;;;;;;1.27;0.38;;;;;;;7.51;54.64;98194.78;4992584;28;19947;-68
2021/05/04 04:13:34;;;;;;;;;;;;;;;7.81;55.42;98259.72;5000675;28;20051;-67
2021/05/04 04:19:32;;;;;;;2.67;0.82;;;;;;;7.88;55.86;98281.50;5011028;28;20549;-68
2021/05/04 04:22:24;;;;;;;0.95;0.55;;;;;;;7.79;55.42;98211.41;4987955;28;20421;-67
2021/05/04 04:24:55;;;;;;;2.60;0.40;;;;;;;8.36;54.70;98219.13;4996303;28;20120;-68
2021/05/04 04:27:22;;;;;;;0.30;0.30;;;;;;;8.43;54.59;98216.19;5009010;28;20049;-67
2021/05/04 04:29:49;;;;;;;0.50;0.50;;;;;;;8.66;54.12;98252.34;4993083;28;20041;-68
2021/05/04 04:32:16;;;;;;;2.38;0.40;;;;;;;8.34;53.72;98183.97;5008937;28;20052;-68
2021/05/04 04:34:43;;;;;;;0.85;0.68;;;;;;;8.70;53.67;98206.38;4968207;28;20492;-68
2021/05/04 04:37:10;;;;;;;1.35;0.50;;;;;;;8.86;53.79;98226.03;4970182;28;20050;-67
2021/05/04 04:39:36;;;;;;;2.47;0.55;;;;;;;8.85;54.03;98216.38;4954263;28;20042;-68
2021/05/04 04:42:04;;;;;;;0.60;0.50;;;;;;;8.74;53.67;98195.66;4968326;28;20065;-68
2021/05/04 04:44:33;;;;;;;1.35;0.32;;;;;;;8.59;53.28;98193.59;5004499;28;20053;-67
2021/05/04 04:47:05;;;;;;;1.98;0.80;;;;;;;8.52;52.92;98247.59;5008919;28;20144;-67
2021/05/04 04:49:35;;;;;;;0.50;0.40;;;;;;;8.25;52.92;98208.06;4971321;28;20597;-68
2021/05/04 04:52:02;;;;;;;0.75;0.50;;;;;;;8.17;53.19;98224.16;4973814;28;20491;-68
2021/05/04 04:54:28;;;;;;;0.63;0.30;;;;;;;8.12;52.57;98194.41;5012176;28;20093;-66
2021/05/04 04:56:58;;;;;;;0.68;0.47;;;;;;;8.56;52.25;98203.41;4996760;28;20064;-68
2021/05/04 04:59:26;;;;;;;2.83;0.40;;;;;;;8.86;51.38;98218.97;5032989;28;20123;-67
2021/05/04 05:01:52;;;;;;;0.73;0.30;;;;;;;8.14;52.52;98218.13;5040210;28;20539;-67
2021/05/04 05:04:19;;;;;;;3.00;0.38;;;;;;;8.18;52.29;98202.13;5032736;28;20040;-67
2021/05/04 05:06:48;;;;;;;2.40;0.40;;;;;;;8.49;51.32;98201.91;5014949;28;20419;-68
2021/05/04 05:09:17;;;;;;;3.03;0.38;;;;;;;8.58;51.97;98214.78;5033528;28;20044;-69
2021/05/04 05:11:44;;;;;;;1.42;0.30;;;;;;;8.31;52.61;98182.31;5033571;28;20037;-66
2021/05/04 05:14:10;;;;;;;1.13;0.40;;;;;;;8.40;53.09;98226.03;5062772;28;20040;-67
2021/05/04 05:16:38;;;;;;;0.60;0.40;;;;;;;7.85;52.07;98176.06;5036857;28;20070;-67
2021/05/04 05:19:06;;;;;;;1.08;0.40;;;;;;;8.43;52.46;98224.13;5036347;28;20039;-68
2021/05/04 05:26:48;;;;;;;;;;;;;;;;;;;;;
2021/05/04 05:34:16;;;;;;;6.88;1.40;;;;;;;7.82;60.36;98202.53;4937299;29;20043;-70
2021/05/04 06:03:04;;;;;;;1.55;0.40;;;;;;;8.16;55.02;98226.84;4701769;30;20106;-68
2021/05/04 06:06:11;;;;;;;4.18;0.60;;;;;;;8.50;54.98;98199.22;4727025;30;20063;-69
2021/05/04 06:13:39;;;;;;;;;;;;;;;;;;;;;
2021/05/04 06:20:59;;;;;;;1.40;0.98;;;;;;;8.69;52.53;98209.97;4726642;30;20126;-68
2021/05/04 06:23:26;;;;;;;0.30;0.30;;;;;;;8.67;50.79;98223.22;4739830;30;20150;-68
2021/05/04 06:25:53;;;;;;;0.75;0.30;;;;;;;8.78;50.58;98181.41;4740489;30;20098;-67
2021/05/04 06:28:20;;;;;;;1.08;0.40;;;;;;;8.73;49.68;98177.22;4741001;30;20673;-67
2021/05/04 06:30:47;;;;;;;3.67;0.28;;;;;;;8.67;49.81;98210.00;4779769;29;20054;-67
2021/05/04 06:33:15;;;;;;;2.78;0.90;;;;;;;9.03;49.56;98174.25;4812420;29;20507;-69
2021/05/04 06:35:44;;;;;;;14.60;1.67;;;;;;;9.48;49.44;98205.94;4817652;29;20057;-67
2021/05/04 06:38:23;;;;;;;7.97;1.52;;;;;;;9.29;48.07;98232.28;4836652;29;20045;-68
2021/05/04 06:41:51;;;;;;;2.10;0.65;;;;;;;9.19;47.01;98212.38;4848994;29;20600;-68
2021/05/04 06:52:59;;;;;;;;;;;;;;;9.86;47.80;98238.78;4742422;30;20066;-68
2021/05/04 06:59:27;;;;;;;3.40;0.40;;;;;;;8.85;48.37;98219.03;4778344;29;20059;-68
2021/05/04 07:19:17;;;;;;;2.70;0.65;;;;;;;8.42;52.26;98196.00;4725951;30;20082;-69
2021/05/04 07:21:56;;;;;;;0.90;0.57;;;;;;;8.91;52.26;98232.88;4708532;30;20157;-70
2021/05/04 07:24:25;;;;;;;3.78;0.50;;;;;;;9.02;51.06;98204.25;4716349;30;20122;-69
2021/05/04 07:26:51;;;;;;;3.60;0.50;;;;;;;8.87;51.80;98204.84;4726079;30;20454;-69
2021/05/04 07:29:22;;;;;;;3.17;0.55;;;;;;;8.93;51.86;98251.31;4800564;29;20054;-69
2021/05/04 07:31:49;;;;;;;0.60;0.40;;;;;;;8.98;51.29;98237.00;4798109;29;20069;-69
2021/05/04 07:34:26;;;;;;;1.95;0.50;;;;;;;9.27;50.42;98226.16;4808796;29;20062;-67
2021/05/04 07:36:56;;;;;;;5.00;2.38;;;;;;;9.13;49.83;98193.25;4795042;29;20493;-67
2021/05/04 07:39:32;;;;;;;1.30;0.30;;;;;;;9.36;48.99;98235.53;4824564;29;20113;-66
2021/05/04 07:42:10;;;;;;;1.55;0.47;;;;;;;9.39;50.05;98219.53;4849953;29;20053;-67
2021/05/04 07:44:36;;;;;;;2.38;0.40;;;;;;;9.16;51.11;98236.31;4838201;29;20056;-69
2021/05/04 07:47:03;;;;;;;4.05;1.10;;;;;;;9.17;52.11;98243.31;4878926;29;20492;-67
2021/05/04 07:49:46;;;;;;;3.35;0.75;;;;;;;9.13;51.95;98249.66;4934434;28;20141;-66
2021/05/04 07:52:49;;;;;;;1.17;0.50;;;;;;;9.92;51.40;98276.44;4986595;28;20072;-68
2021/05/04 07:55:48;;;;;;;5.10;1.10;;;;;;;10.41;50.31;98238.19;4985870;28;20127;-69
2021/05/04 07:58:23;;;;;;;12.90;1.38;;;;;;;10.37;48.95;98253.38;4988826;28;20041;-69
2021/05/04 08:00:55;;;;;;;4.40;0.80;;;;;;;10.06;47.85;98238.84;4990119;28;20061;-67
2021/05/04 08:03:42;;;;;;;3.08;1.20;;;;;;;9.57;48.26;98224.06;4972004;28;20049;-70
2021/05/04 08:06:37;;;;;;;6.25;1.85;;;;;;;9.78;48.28;98273.50;5030260;28;20102;-69
2021/05/04 08:09:05;;;;;;;8.00;1.63;;;;;;;9.40;47.58;98239.78;5034126;28;20084;-67
2021/05/04 08:11:32;;;;;;;2.00;0.75;;;;;;;9.65;46.33;98229.09;5033261;28;20090;-67
2021/05/04 08:13:59;;;;;;;3.28;0.50;;;;;;;9.38;48.73;98268.94;5049293;28;20067;-67
2021/05/04 08:16:30;;;;;;;3.35;1.30;;;;;;;9.61;48.38;98227.47;5050618;28;20052;-69
2021/05/04 08:19:15;;;;;;;1.40;0.88;;;;;;;9.81;47.73;98260.13;5034309;28;20123;-67
2021/05/04 08:21:45;;;;;;;0.77;0.50;;;;;;;10.10;48.34;98273.06;5056058;28;20048;-68
2021/05/04 08:24:18;;;;;;;9.13;0.43;;;;;;;9.39;51.91;98307.69;5038146;28;20083;-69
2021/05/04 08:33:47;;;;;;;5.85;0.95;;;;;;;10.54;46.62;98301.19;5000410;28;20074;-68
2021/05/04 08:36:46;;;;;;;1.95;0.75;;;;;;;10.79;46.32;98285.91;4973838;28;20061;-70
2021/05/04 08:39:49;;;;;;;2.03;0.52;;;;;;;10.23;46.26;98223.94;4970335;28;20046;-68
2021/05/04 08:42:17;;;;;;;3.85;0.70;;;;;;;10.43;46.88;98247.78;4955646;28;20038;-68
2021/05/04 08:44:49;;;;;;;2.00;0.90;;;;;;;10.78;45.49;98244.44;4954035;28;20061;-69
2021/05/04 08:47:18;;;;;;;2.40;1.00;;;;;;;11.73;44.42;98274.44;4970766;28;20057;-70
2021/05/04 08:49:46;;;;;;;7.00;0.50;;;;;;;11.60;43.91;98310.47;4951379;28;20072;-68
2021/05/04 08:52:13;;;;;;;0.63;0.43;;;;;;;10.94;44.29;98301.16;4950077;28;20166;-70
2021/05/04 08:54:41;;;;;;;0.70;0.50;;;;;;;11.44;44.55;98317.41;4936733;28;20273;-69
2021/05/04 08:57:07;;;;;;;2.20;0.60;;;;;;;10.87;45.17;98277.63;4936236;28;20046;-69
2021/05/04 08:59:35;;;;;;;1.17;0.70;;;;;;;10.23;46.39;98310.47;4935255;28;20058;-70
2021/05/04 09:02:08;;;;;;;1.23;0.60;;;;;;;9.44;52.87;98312.81;4954067;28;20109;-67
2021/05/04 09:07:38;;;;;;;4.40;1.00;;;;;;;10.42;52.31;98287.59;4912649;29;20844;-69
2021/05/04 09:10:21;;;;;;;3.95;0.60;;;;;;;10.61;53.54;98318.56;4909422;28;20090;-68
2021/05/04 09:13:24;;;;;;;6.70;1.17;;;;;;;10.99;51.72;98315.06;4934662;28;20074;-68
2021/05/04 09:18:42;;;;;;;5.72;1.63;;;;;;;10.93;53.70;98325.97;4946645;28;20054;-67
2021/05/04 09:21:09;;;;;;;4.10;1.25;;;;;;;10.81;51.74;98336.22;4936438;28;20053;-72
2021/05/04 09:23:41;;;;;;;5.00;1.23;;;;;;;10.62;52.04;98341.47;4938159;28;20169;-73
2021/05/04 09:26:17;;;;;;;4.28;1.10;;;;;;;9.51;54.80;98320.44;4938410;28;20129;-80
2021/05/04 09:28:51;;;;;;;3.60;0.77;;;;;;;10.16;51.89;98338.19;4936249;28;20092;-71
2021/05/04 09:31:25;;;;;;;2.00;1.05;;;;;;;10.72;47.14;98352.53;4970138;28;20518;-72
2021/05/04 09:33:53;;;;;;;5.38;1.30;;;;;;;11.63;48.35;98361.63;4968659;28;20084;-75
2021/05/04 09:36:51;;;;;;;1.67;0.73;;;;;;;10.44;47.62;98383.78;4953394;28;20046;-72
2021/05/04 09:39:33;;;;;;;0.98;0.30;;;;;;;8.61;51.51;98312.41;4920085;28;20061;-74
2021/05/04 09:42:00;;;;;;;8.70;0.93;;;;;;;9.53;54.94;98338.91;4938204;28;20042;-75
2021/05/04 09:44:36;;;;;;;1.98;1.02;;;;;;;10.11;51.17;98337.47;5005364;28;20269;-75
2021/05/04 09:47:04;;;;;;;2.63;1.35;;;;;;;11.12;50.44;98334.78;5052896;28;20231;-79
2021/05/04 09:49:37;;;;;;;3.45;1.40;;;;;;;11.51;48.68;98363.97;5036988;28;20062;-70
2021/05/04 09:55:01;;;;;;;2.78;0.60;;;;;;;9.96;49.05;98311.63;5052695;28;20070;-72
2021/05/04 09:57:41;;;;;;;0.45;0.43;;;;;;;9.72;50.19;98387.53;5034842;28;20040;-75
2021/05/04 10:00:23;;;;;;;0.95;0.50;;;;;;;10.24;50.30;98387.25;5053124;28;20063;-72
2021/05/04 10:03:03;;;;;;;;;;;;;;;;;;;;;
2021/05/04 10:05:31;;;;;;;1.17;0.47;;;;;;;10.09;49.62;98348.13;5031720;28;20036;-82
2021/05/04 10:08:01;;;;;;;1.42;0.47;;;;;;;10.17;50.57;98383.09;5029760;28;20041;-76
2021/05/04 10:10:28;;;;;;;1.83;0.70;;;;;;;10.72;49.97;98361.34;4996779;28;20040;-73
2021/05/04 10:12:56;;;;;;;2.90;0.52;;;;;;;10.72;48.71;98361.34;5013625;28;20072;-74
2021/05/04 10:15:23;;;;;;;0.85;0.40;;;;;;;10.33;48.90;98391.31;4997838;28;20049;-76
2021/05/04 10:20:45;;;;;;;2.45;0.40;;;;;;;9.47;47.45;98379.66;5053820;28;20044;-75
2021/05/04 10:23:12;;;;;;;0.40;0.38;;;;;;;8.69;50.08;98400.19;5038667;28;20045;-74
2021/05/04 10:25:43;;;;;;;1.85;0.38;;;;;;;8.45;51.71;98353.47;4997247;28;20052;-72
2021/05/04 10:28:10;;;;;;;0.73;0.32;;;;;;;8.09;54.69;98410.97;4996473;28;20136;-73
2021/05/04 10:30:37;;;;;;;1.15;0.68;;;;;;;8.17;59.44;98385.19;5010739;28;20048;-78
2021/05/04 10:33:48;;;;;;;3.03;0.90;;;;;;;8.60;56.23;98393.47;5002532;28;20065;-72
2021/05/04 10:36:42;;;;;;;1.55;0.60;;;;;;;7.97;54.14;98339.25;4950338;28;20050;-74
2021/05/04 10:39:36;;;;;;;;;;;;;;;9.42;52.92;98408.09;4948715;28;20057;-70
2021/05/04 10:42:11;;;;;;;3.85;1.15;;;;;;;9.91;51.06;98427.41;4948673;28;19958;-71
2021/05/04 10:45:03;;;;;;;3.30;0.70;;;;;;;10.77;49.96;98420.34;4963024;28;20112;-72
2021/05/04 10:47:53;;;;;;;2.55;0.60;;;;;;;11.05;50.07;98428.84;4949499;28;20201;-73
2021/05/04 10:51:04;;;;;;;1.13;0.60;;;;;;;11.28;50.49;98414.56;4923073;28;20404;-73
2021/05/04 10:54:54;;;;;;;1.50;0.80;;;;;;;9.64;53.36;98326.13;4914999;29;20047;-72
2021/05/04 10:57:54;;;;;;;4.30;1.08;;;;;;;8.76;56.79;98335.66;4894790;29;20184;-74
2021/05/04 11:04:52;;;;;;;13.43;3.10;;;;;;;8.65;57.65;98343.97;4907950;29;20072;-71
2021/05/04 11:07:53;;;;;;;2.65;1.17;;;;;;;9.28;55.22;98396.28;4893127;29;20303;-72
2021/05/04 11:10:20;;;;;;;2.67;0.63;;;;;;;9.25;53.81;98406.97;4890324;29;20064;-70
2021/05/04 11:12:47;;;;;;;3.17;0.70;;;;;;;9.88;50.68;98324.31;4899258;29;20515;-73
2021/05/04 11:16:08;;;;;;;1.88;1.15;;;;;;;10.43;48.72;98424.44;4879377;29;20094;-72
2021/05/04 11:19:20;;;;;;;4.72;1.00;;;;;;;9.65;49.27;98350.81;4882670;29;20055;-71
2021/05/04 11:26:43;;;;;;;7.60;0.40;;;;;;;8.96;52.08;98409.81;4835641;29;20050;-77
2021/05/04 11:33:03;;;;;;;;;;;;;;;;;;;;;
2021/05/04 11:36:41;;;;;;;1.08;0.60;;;;;;;9.07;56.52;98419.06;4765079;29;20107;-74
2021/05/04 11:39:17;;;;;;;0.57;0.40;;;;;;;9.06;57.03;98441.16;4766143;29;20047;-74
2021/05/04 11:42:04;;;;;;;0.93;0.60;;;;;;;8.60;57.85;98433.09;4798494;29;20055;-73
2021/05/04 11:44:57;;;;;;;;;;;;;;;;;;;;;
2021/05/04 11:48:02;;;;;;;1.13;0.70;;;;;;;7.57;60.66;98363.38;4801237;29;20069;-77
2021/05/04 11:50:39;;;;;;;2.03;0.95;;;;;;;7.91;60.81;98379.88;4801594;29;20065;-79
2021/05/04 11:53:28;;;;;;;2.65;0.88;;;;;;;8.22;61.53;98469.56;4798449;29;20087;-80
2021/05/04 11:56:19;;;;;;;5.78;2.97;;;;;;;8.12;62.84;98483.94;4797483;29;20061;-76
2021/05/04 11:59:10;;;;;;;5.22;1.63;;;;;;;8.18;64.60;98478.44;4780147;29;20066;-71
2021/05/04 12:01:43;;;;;;;2.80;1.50;;;;;;;8.52;64.26;98481.78;4806066;29;20057;-71
2021/05/04 12:04:09;;;;;;;3.08;1.55;;;;;;;8.74;63.57;98477.50;4874628;29;20563;-72
2021/05/04 12:07:13;;;;;;;1.67;0.90;;;;;;;8.97;61.68;98424.75;4875824;29;20052;-71
2021/05/04 12:09:39;;;;;;;1.73;1.00;;;;;;;9.53;60.90;98444.72;4932153;28;20443;-72
2021/05/04 12:12:14;;;;;;;1.85;0.80;;;;;;;9.79;58.98;98449.03;4969527;28;20550;-73
2021/05/04 12:14:57;;;;;;;0.52;0.45;;;;;;;9.49;58.69;98472.22;4971338;28;20046;-72
2021/05/04 12:17:29;;;;;;;;;;;;;;;9.68;58.65;98475.06;4989752;28;20060;-73
2021/05/04 12:20:16;;;;;;;1.25;0.75;;;;;;;8.98;57.19;98456.41;4989945;28;19921;-72
2021/05/04 12:22:51;;;;;;;1.67;0.68;;;;;;;9.25;57.42;98481.03;4969595;28;20525;-73
2021/05/04 12:25:27;;;;;;;0.90;0.77;;;;;;;8.95;58.44;98459.16;4985481;28;20093;-75
2021/05/04 12:27:54;;;;;;;5.13;2.08;;;;;;;9.12;57.89;98469.16;5009678;28;20041;-71
2021/05/04 12:30:26;;;;;;;0.85;0.52;;;;;;;8.66;57.09;98474.28;5023313;28;20067;-75
2021/05/04 12:32:53;;;;;;;2.60;0.70;;;;;;;8.44;58.79;98460.03;5009273;28;20037;-70
2021/05/04 12:35:29;;;;;;;0.77;0.63;;;;;;;8.53;59.02;98441.25;5016059;28;20084;-70
2021/05/04 12:38:23;;;;;;;0.98;0.40;;;;;;;8.50;59.02;98497.69;5031603;28;20058;-71
2021/05/04 12:40:54;;;;;;;1.42;0.60;;;;;;;9.15;57.36;98503.44;5022053;28;20562;-69
2021/05/04 12:43:32;;;;;;;2.30;0.82;;;;;;;9.66;55.04;98471.59;4993222;28;20536;-71
2021/05/04 12:46:08;;;;;;;1.88;0.70;;;;;;;9.35;56.17;98506.25;4995259;28;20037;-74
2021/05/04 12:48:41;;;;;;;1.23;0.70;;;;;;;9.76;56.11;98521.50;5002898;28;20037;-76
2021/05/04 12:51:14;;;;;;;3.03;0.98;;;;;;;8.91;58.26;98473.41;4994270;28;20055;-72
2021/05/04 12:53:45;;;;;;;7.05;1.10;;;;;;;9.36;58.81;98500.91;5010269;28;20064;-73
2021/05/04 12:56:17;;;;;;;2.90;0.98;;;;;;;8.80;58.71;98469.41;5022601;28;20076;-74
2021/05/04 12:58:56;;;;;;;;;;;;;;;8.92;59.23;98513.91;5015151;28;20056;-75
2021/05/04 13:02:05;;;;;;;4.43;1.00;;;;;;;9.13;58.83;98498.19;5024949;28;20307;-73
2021/05/04 13:07:52;;;;;;;1.73;0.93;;;;;;;8.78;58.82;98508.22;5015619;28;20049;-72
2021/05/04 13:10:47;;;;;;;1.95;1.02;;;;;;;8.60;58.93;98530.84;4998506;28;20056;-73
2021/05/04 13:19:44;;;;;;;0.50;0.50;;;;;;;8.46;57.39;98511.03;5010462;28;20124;-71
2021/05/04 13:30:39;;;;;;;1.85;0.73;;;;;;;8.88;56.37;98533.44;4991943;28;20045;-65
2021/05/04 13:33:07;;;;;;;4.15;0.43;;;;;;;8.45;58.40;98539.25;5024671;28;20045;-65
2021/05/04 13:35:39;;;;;;;1.33;0.80;;;;;;;8.32;60.29;98555.50;4991207;28;20033;-70
2021/05/04 13:38:30;;;;;;;1.92;0.68;;;;;;;8.53;61.28;98547.78;5024560;28;20136;-66
2021/05/04 13:49:10;;;;;;;1.75;0.82;;;;;;;8.59;62.13;98566.06;5023902;28;20064;-67
2021/05/04 13:51:40;;;;;;;1.42;0.63;;;;;;;8.33;61.05;98520.25;5023556;28;20098;-66
2021/05/04 13:54:07;;;;;;;1.48;0.65;;;;;;;8.54;60.76;98556.56;5008492;28;20048;-66
2021/05/04 13:56:42;;;;;;;1.10;0.80;;;;;;;8.30;60.91;98552.91;5025293;28;20520;-65
2021/05/04 13:59:18;;;;;;;1.13;0.70;;;;;;;8.74;60.40;98565.59;5046146;28;20060;-66
2021/05/04 14:01:56;;;;;;;1.88;0.95;;;;;;;8.53;60.38;98555.72;5034963;28;20159;-65
2021/05/04 14:26:50;;;;;;;11.70;0.63;;;;;;;8.05;57.86;98588.84;5005063;28;20145;-62
2021/05/04 14:29:17;;;;;;;1.92;0.45;;;;;;;7.76;58.72;98575.59;5003986;28;20510;-57
2021/05/04 14:31:44;;;;;;;1.92;0.90;;;;;;;7.66;58.89;98571.50;5004633;28;20046;-62
2021/05/04 14:34:17;;;;;;;1.98;0.90;;;;;;;7.72;60.94;98589.75;4985508;28;20533;-69
2021/05/04 14:39:28;;;;;;;5.00;2.58;;;;;;;7.64;61.46;98536.34;4971135;28;20037;-69
2021/05/04 14:42:25;;;;;;;4.07;1.30;;;;;;;8.11;60.20;98549.06;4953948;28;20301;-69
2021/05/04 15:00:52;;;;;;;1.88;0.90;;;;;;;7.36;62.95;98559.13;5050125;28;20135;-71
2021/05/04 15:03:37;;;;;;;4.20;1.30;;;;;;;7.50;63.68;98562.25;5052080;28;20134;-71
2021/05/04 15:06:08;;;;;;;2.75;1.20;;;;;;;7.27;63.02;98535.63;5032537;28;20044;-72
2021/05/04 15:08:38;;;;;;;8.23;1.60;;;;;;;7.57;62.80;98561.19;4998160;28;20076;-70
2021/05/04 15:11:09;;;;;;;2.15;1.13;;;;;;;7.46;62.24;98567.66;5031429;28;20100;-69
2021/05/04 15:13:48;;;;;;;3.10;1.40;;;;;;;7.34;61.79;98567.97;5019086;28;20043;-70
2021/05/04 15:16:51;;;;;;;2.10;1.00;;;;;;;7.19;61.77;98556.06;4977080;28;20437;-65
2021/05/04 15:22:17;;;;;;;1.67;0.90;;;;;;;7.41;62.16;98593.28;4967670;28;20405;-66
2021/05/04 15:25:03;;;;;;;3.22;0.80;;;;;;;7.21;62.84;98599.09;4969449;28;20097;-68
2021/05/04 15:27:30;;;;;;;1.58;0.80;;;;;;;7.22;62.72;98565.66;4951509;28;20146;-68
2021/05/04 15:29:57;;;;;;;1.00;0.60;;;;;;;7.45;62.92;98603.72;4934664;28;20092;-67
2021/05/04 15:33:13;;;;;;;2.20;0.90;;;;;;;7.66;62.56;98620.72;4951471;28;20080;-72
2021/05/04 15:36:03;;;;;;;5.05;0.75;;;;;;;7.28;62.58;98555.81;4970771;28;20188;-71
2021/05/04 15:38:59;;;;;;;;;;;;;;;;;;;;;
2021/05/04 15:41:31;;;;;;;3.00;0.90;;;;;;;7.34;63.05;98605.75;4953270;28;20084;-72
2021/05/04 15:43:58;;;;;;;3.45;1.13;;;;;;;7.00;64.02;98578.50;4934067;28;20044;-70
2021/05/04 15:46:43;;;;;;;1.48;0.90;;;;;;;6.86;64.22;98569.22;4936971;28;20108;-71
2021/05/04 15:49:13;;;;;;;2.40;0.80;;;;;;;7.07;63.80;98585.38;4950008;28;20038;-70
2021/05/04 16:00:38;;;;;;;1.30;0.75;;;;;;;6.90;63.64;98603.38;5018286;28;20056;-73
2021/05/04 16:03:51;;;;;;;2.80;0.90;;;;;;;7.16;63.81;98643.13;5007315;28;20080;-75
2021/05/04 16:11:25;;;;;;;3.42;1.20;;;;;;;7.18;65.10;98656.25;5005520;28;20112;-72
2021/05/04 16:14:44;;;;;;;3.00;1.20;;;;;;;6.83;65.61;98614.94;4972919;28;20080;-73
2021/05/04 16:17:38;;;;;;;3.92;1.20;;;;;;;6.88;65.13;98630.66;4895062;29;20496;-70
2021/05/04 16:22:53;;;;;;;2.70;1.38;;;;;;;7.03;65.05;98654.88;4866201;29;20161;-70
2021/05/04 16:25:26;;;;;;;3.10;1.50;;;;;;;6.96;65.20;98631.34;4851125;29;20061;-69
2021/05/04 16:31:20;;;;;;;1.65;1.10;;;;;;;7.11;64.17;98658.19;4816732;29;20076;-70
2021/05/04 16:34:13;;;;;;;7.28;1.40;;;;;;;7.12;64.29;98675.72;4800636;29;20377;-70
2021/05/04 16:36:52;;;;;;;4.95;1.38;;;;;;;6.91;64.85;98652.53;4802576;29;20042;-69
2021/05/04 16:39:19;;;;;;;2.40;1.30;;;;;;;6.85;64.75;98631.56;4818723;29;20054;-77
2021/05/04 16:41:59;;;;;;;4.63;1.40;;;;;;;6.92;65.13;98646.34;4807829;29;20076;-75
2021/05/04 16:44:31;;;;;;;1.58;1.00;;;;;;;6.53;66.01;98633.22;4805690;29;20506;-70
2021/05/04 16:51:35;;;;;;;1.70;1.00;;;;;;;6.18;65.74;98591.88;4853155;29;20060;-71
2021/05/04 16:54:26;;;;;;;2.17;1.25;;;;;;;6.32;66.45;98591.56;4839064;29;20063;-72
2021/05/04 16:56:56;;;;;;;3.90;1.25;;;;;;;6.64;65.62;98687.38;4860174;29;20052;-72
2021/05/04 16:59:26;;;;;;;1.23;1.00;;;;;;;6.79;65.26;98684.41;4869067;29;20063;-72
2021/05/04 17:02:26;;;;;;;2.97;1.58;;;;;;;6.65;65.35;98660.13;4879275;29;20044;-75
2021/05/04 17:05:57;;;;;;;4.28;1.40;;;;;;;6.82;64.68;98654.50;4982324;28;20767;-72
2021/05/04 17:11:55;;;;;;;2.38;1.55;;;;;;;7.05;64.33;98718.09;4969225;28;20047;-72